Time;durP1;ratioP1;P1;durP2;ratioP2;P2;SDS_P1;SDS_P2;PMS_P1;PMS_P2;Temp;Humidity;BMP_temperature;BMP_pressure;BME280_temperature;BME280_humidity;BME280_pressure;Samples;Min_cycle;Max_cycle;Signal;HPM_P1;HPM_P2
2023/03/27 00:00:11;;;;;;;;;;;13.30;94.70;;;;;;5076757;28;19952;-89
2023/03/27 00:02:37;;;;;;;;;;;13.30;94.70;;;;;;5059327;28;19939;-89
2023/03/27 00:05:04;;;;;;;;;;;13.30;94.80;;;;;;5059502;28;19916;-89
2023/03/27 00:07:29;;;;;;;;;;;13.30;94.80;;;;;;5059217;28;19972;-89
2023/03/27 00:09:56;;;;;;;;;;;13.30;94.80;;;;;;5057366;28;19999;-89
2023/03/27 00:12:21;;;;;;;;;;;13.30;94.80;;;;;;5058169;28;20198;-89
2023/03/27 00:14:47;;;;;;;;;;;13.30;94.80;;;;;;5057621;28;19915;-89
2023/03/27 00:17:13;;;;;;;;;;;13.30;94.80;;;;;;5056498;28;19909;-89
2023/03/27 00:19:41;;;;;;;;;;;13.30;94.80;;;;;;5055046;28;20276;-89
2023/03/27 00:22:06;;;;;;;;;;;13.30;94.80;;;;;;5055406;28;19913;-90
2023/03/27 00:24:33;;;;;;;;;;;13.30;94.80;;;;;;5055271;28;19909;-89
2023/03/27 00:26:58;;;;;;;;;;;13.30;94.80;;;;;;5055977;28;20013;-89
2023/03/27 00:29:24;;;;;;;;;;;13.30;94.80;;;;;;5055028;28;20177;-89
2023/03/27 00:31:49;;;;;;;;;;;13.20;94.80;;;;;;5056336;28;20378;-89
2023/03/27 00:34:15;;;;;;;;;;;13.20;94.80;;;;;;5057240;28;20230;-90
2023/03/27 00:36:42;;;;;;;;;;;13.20;94.80;;;;;;5056878;28;19944;-89
2023/03/27 00:39:09;;;;;;;;;;;13.20;94.80;;;;;;5057305;28;19973;-89
2023/03/27 00:41:34;;;;;;;;;;;13.20;94.80;;;;;;5072785;28;19916;-89
2023/03/27 00:44:02;;;;;;;;;;;13.20;94.80;;;;;;5054218;28;20302;-89
2023/03/27 00:46:41;;;;;;;;;;;13.20;94.80;;;;;;5054062;28;19909;-90
2023/03/27 00:49:08;;;;;;;;;;;13.20;94.80;;;;;;5056356;28;19908;-90
2023/03/27 00:51:35;;;;;;;;;;;13.20;94.80;;;;;;5056021;28;20203;-89
2023/03/27 00:54:02;;;;;;;;;;;13.20;94.80;;;;;;5056337;28;20258;-90
2023/03/27 00:56:27;;;;;;;;;;;13.10;94.80;;;;;;5091362;28;20306;-89
2023/03/27 00:58:55;;;;;;;;;;;13.10;94.80;;;;;;5059529;28;20357;-89
2023/03/27 01:01:23;;;;;;;;;;;13.10;94.80;;;;;;5076573;28;20209;-89
2023/03/27 01:03:50;;;;;;;;;;;13.10;94.80;;;;;;5058483;28;20159;-89
2023/03/27 01:06:15;;;;;;;;;;;13.10;94.80;;;;;;5058986;28;19917;-89
2023/03/27 01:08:42;;;;;;;;;;;13.10;94.80;;;;;;5058650;28;19908;-89
2023/03/27 01:11:21;;;;;;;;;;;13.10;94.80;;;;;;5058494;28;19931;-89
2023/03/27 01:13:49;;;;;;;;;;;13.10;94.80;;;;;;5058758;28;20039;-89
2023/03/27 01:16:25;;;;;;;;;;;13.10;94.80;;;;;;5091417;28;19912;-89
2023/03/27 01:19:08;;;;;;;;;;;13.10;94.80;;;;;;5058754;28;20194;-89
2023/03/27 01:21:36;;;;;;;;;;;13.10;94.80;;;;;;5057733;28;19912;-89
2023/03/27 01:24:21;;;;;;;;;;;13.00;94.80;;;;;;5092446;28;19909;-89
2023/03/27 01:26:56;;;;;;;;;;;13.00;94.80;;;;;;5092634;28;20049;-89
2023/03/27 01:29:25;;;;;;;;;;;13.00;94.80;;;;;;5075925;28;19909;-89
2023/03/27 01:31:50;;;;;;;;;;;13.00;94.80;;;;;;5092988;28;20298;-89
2023/03/27 01:34:26;;;;;;;;;;;13.00;94.80;;;;;;5092674;28;19916;-89
2023/03/27 01:36:55;;;;;;;;;;;13.00;94.80;;;;;;5059603;28;19909;-89
2023/03/27 01:39:40;;;;;;;;;;;13.00;94.80;;;;;;5090339;28;19908;-89
2023/03/27 01:42:08;;;;;;;;;;;13.00;94.80;;;;;;5072169;28;19913;-89
2023/03/27 01:44:41;;;;;;;;;;;13.00;94.80;;;;;;5088804;28;19923;-89
2023/03/27 01:47:20;;;;;;;;;;;13.00;94.80;;;;;;5055830;28;19919;-89
2023/03/27 01:49:59;;;;;;;;;;;13.00;94.80;;;;;;5074652;28;19932;-89
2023/03/27 01:52:28;;;;;;;;;;;13.00;94.80;;;;;;5073834;28;19908;-89
2023/03/27 01:55:02;;;;;;;;;;;12.90;94.70;;;;;;5054652;28;19959;-89
2023/03/27 01:57:48;;;;;;;;;;;12.90;94.70;;;;;;5055643;28;19909;-89
2023/03/27 02:00:20;;;;;;;;;;;12.90;94.70;;;;;;5073248;28;19919;-89
2023/03/27 02:02:58;;;;;;;;;;;12.90;94.70;;;;;;5056364;28;19912;-89
2023/03/27 02:05:39;;;;;;;;;;;12.90;94.70;;;;;;5074004;28;19908;-89
2023/03/27 02:08:10;;;;;;;;;;;12.90;94.80;;;;;;5090441;28;19909;-89
2023/03/27 02:10:38;;;;;;;;;;;12.90;94.80;;;;;;5057504;28;19978;-89
2023/03/27 02:13:06;;;;;;;;;;;12.90;94.70;;;;;;5059462;28;19967;-88
2023/03/27 02:15:33;;;;;;;;;;;12.90;94.70;;;;;;5063187;28;20074;-89
2023/03/27 02:18:03;;;;;;;;;;;12.90;94.70;;;;;;5057431;28;20019;-89
2023/03/27 02:20:29;;;;;;;;;;;12.80;94.70;;;;;;5056865;28;19935;-89
2023/03/27 02:22:59;;;;;;;;;;;12.90;94.70;;;;;;5056253;28;19922;-89
2023/03/27 02:25:33;;;;;;;;;;;12.80;94.70;;;;;;5056278;28;19970;-89
2023/03/27 02:27:58;;;;;;;;;;;12.80;94.60;;;;;;5089884;28;19913;-89
2023/03/27 02:30:47;;;;;;;;;;;12.80;94.60;;;;;;5073820;28;19909;-89
2023/03/27 02:33:32;;;;;;;;;;;12.80;94.70;;;;;;5057454;28;19917;-89
2023/03/27 02:36:27;;;;;;;;;;;12.80;94.70;;;;;;5093129;28;20301;-89
2023/03/27 02:39:00;;;;;;;;;;;12.80;94.70;;;;;;5068639;28;20168;-89
2023/03/27 02:41:25;;;;;;;;;;;12.80;94.70;;;;;;5060833;28;20025;-89
2023/03/27 02:44:00;;;;;;;;;;;12.80;94.70;;;;;;5094463;28;19947;-89
2023/03/27 02:46:29;;;;;;;;;;;12.80;94.70;;;;;;5077071;28;19908;-90
2023/03/27 02:48:56;;;;;;;;;;;12.80;94.70;;;;;;5060898;28;19909;-89
2023/03/27 02:51:25;;;;;;;;;;;12.70;94.70;;;;;;5077032;28;19909;-89
2023/03/27 02:54:03;;;;;;;;;;;12.70;94.60;;;;;;5060344;28;19909;-89
2023/03/27 02:56:32;;;;;;;;;;;12.70;94.70;;;;;;5058827;28;19908;-89
2023/03/27 02:59:07;;;;;;;;;;;12.70;94.70;;;;;;5059773;28;20274;-89
2023/03/27 03:01:33;;;;;;;;;;;12.70;94.70;;;;;;5091875;28;19913;-89
2023/03/27 03:04:07;;;;;;;;;;;12.70;94.70;;;;;;5058262;28;19994;-89
2023/03/27 03:06:33;;;;;;;;;;;12.70;94.70;;;;;;5058316;28;19912;-89
2023/03/27 03:09:05;;;;;;;;;;;12.70;94.70;;;;;;5058683;28;20253;-89
2023/03/27 03:11:35;;;;;;;;;;;12.60;94.70;;;;;;5059758;28;19919;-89
2023/03/27 03:14:01;;;;;;;;;;;12.70;94.70;;;;;;5059284;28;19916;-89
2023/03/27 03:16:27;;;;;;;;;;;12.70;94.70;;;;;;5058667;28;20159;-89
2023/03/27 03:18:53;;;;;;;;;;;12.60;94.60;;;;;;5076311;28;19919;-89
2023/03/27 03:21:18;;;;;;;;;;;12.60;94.60;;;;;;5076688;28;20006;-89
2023/03/27 03:23:44;;;;;;;;;;;12.60;94.60;;;;;;5060123;28;20142;-89
2023/03/27 03:26:12;;;;;;;;;;;12.60;94.60;;;;;;5059147;28;20206;-90
2023/03/27 03:28:38;;;;;;;;;;;12.60;94.60;;;;;;5059020;28;20183;-89
2023/03/27 03:31:04;;;;;;;;;;;12.60;94.70;;;;;;5058876;28;20336;-89
2023/03/27 03:33:30;;;;;;;;;;;12.60;94.60;;;;;;5058793;28;19916;-89
2023/03/27 03:35:59;;;;;;;;;;;12.60;94.70;;;;;;5058877;28;20185;-89
2023/03/27 03:38:25;;;;;;;;;;;12.60;94.60;;;;;;5057470;28;19914;-89
2023/03/27 03:40:55;;;;;;;;;;;12.60;94.60;;;;;;5055443;28;20155;-89
2023/03/27 03:43:22;;;;;;;;;;;12.60;94.70;;;;;;5054517;28;20441;-89
2023/03/27 03:45:48;;;;;;;;;;;12.60;94.60;;;;;;5054439;28;19923;-89
2023/03/27 03:48:14;;;;;;;;;;;12.60;94.90;;;;;;5056107;28;20449;-89
2023/03/27 03:50:40;;;;;;;;;;;12.50;94.60;;;;;;5056536;28;19908;-89
2023/03/27 03:53:05;;;;;;;;;;;12.60;94.60;;;;;;5056419;28;19951;-89
2023/03/27 03:55:31;;;;;;;;;;;12.50;94.60;;;;;;5057159;28;19923;-89
2023/03/27 03:57:57;;;;;;;;;;;12.50;94.60;;;;;;5057587;28;19944;-90
2023/03/27 04:00:23;;;;;;;;;;;12.50;94.60;;;;;;5073199;28;19916;-90
2023/03/27 04:02:50;;;;;;;;;;;12.50;94.60;;;;;;5056702;28;19923;-90
2023/03/27 04:05:16;;;;;;;;;;;12.50;94.60;;;;;;5056046;28;19908;-90
2023/03/27 04:07:41;;;;;;;;;;;12.50;94.60;;;;;;5056757;28;19913;-90
2023/03/27 04:10:07;;;;;;;;;;;12.50;94.60;;;;;;5056891;28;19958;-90
2023/03/27 04:12:33;;;;;;;;;;;12.50;94.60;;;;;;5057117;28;19920;-90
2023/03/27 04:14:58;;;;;;;;;;;12.50;94.60;;;;;;5057539;28;19920;-90
2023/03/27 04:17:27;;;;;;;;;;;12.50;94.60;;;;;;5074625;28;19917;-90
2023/03/27 04:19:56;;;;;;;;;;;12.40;94.60;;;;;;5054665;28;19912;-90
2023/03/27 04:22:22;;;;;;;;;;;12.40;94.60;;;;;;5055927;28;19960;-90
2023/03/27 04:24:49;;;;;;;;;;;12.40;94.60;;;;;;5055887;28;19908;-90
2023/03/27 04:27:15;;;;;;;;;;;12.40;94.60;;;;;;5056111;28;19909;-90
2023/03/27 04:29:42;;;;;;;;;;;12.40;94.60;;;;;;5055165;28;19909;-90
2023/03/27 04:32:11;;;;;;;;;;;12.40;94.60;;;;;;5053748;28;19997;-90
2023/03/27 04:34:39;;;;;;;;;;;12.40;94.60;;;;;;5050766;28;20282;-90
2023/03/27 04:37:05;;;;;;;;;;;12.40;94.60;;;;;;5051756;28;19916;-90
2023/03/27 04:39:35;;;;;;;;;;;12.40;94.60;;;;;;5052508;28;19908;-90
2023/03/27 04:42:01;;;;;;;;;;;12.40;94.60;;;;;;5052639;28;20172;-90
2023/03/27 04:44:27;;;;;;;;;;;12.30;94.50;;;;;;5054279;28;19919;-90
2023/03/27 04:46:52;;;;;;;;;;;12.30;94.50;;;;;;5052900;28;19916;-90
2023/03/27 04:49:19;;;;;;;;;;;12.30;94.60;;;;;;5053059;28;19908;-90
2023/03/27 04:51:45;;;;;;;;;;;12.30;94.60;;;;;;5087837;28;20192;-89
2023/03/27 04:54:11;;;;;;;;;;;12.30;94.50;;;;;;5055911;28;20199;-88
2023/03/27 04:56:36;;;;;;;;;;;12.30;94.50;;;;;;5056540;28;19908;-89
2023/03/27 04:59:02;;;;;;;;;;;12.30;94.60;;;;;;5056330;28;19918;-89
2023/03/27 05:01:28;;;;;;;;;;;12.30;94.50;;;;;;5055605;28;20353;-89
2023/03/27 05:03:53;;;;;;;;;;;12.30;94.50;;;;;;5054772;28;19920;-89
2023/03/27 05:06:19;;;;;;;;;;;12.30;94.50;;;;;;5053771;28;19913;-89
2023/03/27 05:08:46;;;;;;;;;;;12.30;94.50;;;;;;5052983;28;19923;-89
2023/03/27 05:11:12;;;;;;;;;;;12.30;94.50;;;;;;5053522;28;19919;-89
2023/03/27 05:13:37;;;;;;;;;;;12.30;94.70;;;;;;5049262;28;19916;-89
2023/03/27 05:16:03;;;;;;;;;;;12.30;94.40;;;;;;5085803;28;19908;-89
2023/03/27 05:18:29;;;;;;;;;;;12.30;94.40;;;;;;5052423;28;19919;-89
2023/03/27 05:20:58;;;;;;;;;;;12.30;94.40;;;;;;5053035;28;19923;-89
2023/03/27 05:23:24;;;;;;;;;;;12.30;94.40;;;;;;5054443;28;19916;-89
2023/03/27 05:25:50;;;;;;;;;;;12.20;94.40;;;;;;5069326;28;20246;-89
2023/03/27 05:28:15;;;;;;;;;;;12.30;94.40;;;;;;5050914;28;19909;-89
2023/03/27 05:30:41;;;;;;;;;;;12.30;94.30;;;;;;5084824;28;19909;-89
2023/03/27 05:33:07;;;;;;;;;;;12.30;94.30;;;;;;5067363;28;20278;-89
2023/03/27 05:35:33;;;;;;;;;;;12.30;94.30;;;;;;5049888;28;20172;-89
2023/03/27 05:37:59;;;;;;;;;;;12.30;94.60;;;;;;5050684;28;19909;-88
2023/03/27 05:40:25;;;;;;;;;;;12.30;94.30;;;;;;5051821;28;20068;-89
2023/03/27 05:42:51;;;;;;;;;;;12.30;94.30;;;;;;5048395;28;19913;-89
2023/03/27 05:45:17;;;;;;;;;;;12.30;94.40;;;;;;5049892;28;20271;-89
2023/03/27 05:47:47;;;;;;;;;;;12.40;94.50;;;;;;5050939;28;20258;-89
2023/03/27 05:50:13;;;;;;;;;;;12.40;94.50;;;;;;5046658;28;19920;-89
2023/03/27 05:52:40;;;;;;;;;;;12.40;94.70;;;;;;5064742;28;20011;-89
2023/03/27 05:55:06;;;;;;;;;;;12.40;94.80;;;;;;5047266;28;19978;-89
2023/03/27 05:57:35;;;;;;;;;;;12.50;94.90;;;;;;5047496;28;20109;-89
2023/03/27 06:00:01;;;;;;;;;;;12.50;95.00;;;;;;5047281;28;19909;-89
2023/03/27 06:02:27;;;;;;;;;;;12.50;95.00;;;;;;5046454;28;20185;-88
2023/03/27 06:04:52;;;;;;;;;;;12.50;95.00;;;;;;5047931;28;19931;-88
2023/03/27 06:07:18;;;;;;;;;;;12.60;95.20;;;;;;5051653;28;19973;-88
2023/03/27 06:09:44;;;;;;;;;;;12.60;95.50;;;;;;5054193;28;20372;-88
2023/03/27 06:12:10;;;;;;;;;;;12.60;95.50;;;;;;5070131;28;20022;-88
2023/03/27 06:14:35;;;;;;;;;;;12.60;95.50;;;;;;5053063;28;19913;-88
2023/03/27 06:17:01;;;;;;;;;;;12.70;95.50;;;;;;5086732;28;19938;-88
2023/03/27 06:19:27;;;;;;;;;;;12.80;95.30;;;;;;5052507;28;19995;-88
2023/03/27 06:21:52;;;;;;;;;;;12.90;95.10;;;;;;5050931;28;20201;-88
2023/03/27 06:24:18;;;;;;;;;;;12.90;95.00;;;;;;5048516;28;19916;-88
2023/03/27 06:26:43;;;;;;;;;;;13.00;94.80;;;;;;5049588;28;19908;-87
2023/03/27 06:29:09;;;;;;;;;;;13.00;95.00;;;;;;5050011;28;20185;-87
2023/03/27 06:31:35;;;;;;;;;;;13.00;94.50;;;;;;5059540;28;19927;-87
2023/03/27 06:34:00;;;;;;;;;;;13.10;94.40;;;;;;5065728;28;19958;-88
2023/03/27 06:36:26;;;;;;;;;;;13.10;94.30;;;;;;5050194;28;19909;-88
2023/03/27 06:38:53;;;;;;;;;;;13.10;94.10;;;;;;5051831;28;20036;-88
2023/03/27 06:41:19;;;;;;;;;;;13.50;93.80;;;;;;5052132;28;20186;-88
2023/03/27 06:43:45;;;;;;;;;;;14.50;91.90;;;;;;5053926;28;20278;-88
2023/03/27 06:46:11;;;;;;;;;;;15.30;87.90;;;;;;5052454;28;20177;-88
2023/03/27 06:48:38;;;;;;;;;;;15.70;82.70;;;;;;5051370;28;19980;-88
2023/03/27 06:51:03;;;;;;;;;;;16.10;81.00;;;;;;5051576;28;20085;-88
2023/03/27 06:53:29;;;;;;;;;;;16.70;76.40;;;;;;5052117;28;19908;-88
2023/03/27 06:55:55;;;;;;;;;;;17.20;73.10;;;;;;5070534;28;20426;-88
2023/03/27 06:58:21;;;;;;;;;;;17.60;69.90;;;;;;5085978;28;19919;-88
2023/03/27 07:00:48;;;;;;;;;;;17.20;69.00;;;;;;5049810;28;20070;-88
2023/03/27 07:03:14;;;;;;;;;;;17.80;67.90;;;;;;5050196;28;20095;-88
2023/03/27 07:05:40;;;;;;;;;;;18.30;65.30;;;;;;5052388;28;20057;-88
2023/03/27 07:08:10;;;;;;;;;;;18.80;62.60;;;;;;5050712;28;20056;-88
2023/03/27 07:10:35;;;;;;;;;;;19.30;60.50;;;;;;5051304;28;19924;-88
2023/03/27 07:13:01;;;;;;;;;;;19.60;59.10;;;;;;5050823;28;20068;-88
2023/03/27 07:15:26;;;;;;;;;;;20.00;58.20;;;;;;5050021;28;19909;-88
2023/03/27 07:17:53;;;;;;;;;;;20.30;57.20;;;;;;5065596;28;19908;-88
2023/03/27 07:20:19;;;;;;;;;;;20.60;56.40;;;;;;5050144;28;19915;-88
2023/03/27 07:22:44;;;;;;;;;;;20.90;55.70;;;;;;5050678;28;19913;-88
2023/03/27 07:25:11;;;;;;;;;;;21.20;55.10;;;;;;5067328;28;19909;-87
2023/03/27 07:27:37;;;;;;;;;;;21.40;54.50;;;;;;5050658;28;19916;-88
2023/03/27 07:30:06;;;;;;;;;;;21.60;53.90;;;;;;5048595;28;19912;-88
2023/03/27 07:32:35;;;;;;;;;;;21.90;53.50;;;;;;5051685;28;19908;-87
2023/03/27 07:35:03;;;;;;;;;;;22.10;53.00;;;;;;5049733;28;20058;-88
2023/03/27 07:37:29;;;;;;;;;;;22.20;52.70;;;;;;5049367;28;19939;-88
2023/03/27 07:39:55;;;;;;;;;;;22.60;52.10;;;;;;5048159;28;19908;-88
2023/03/27 07:42:21;;;;;;;;;;;22.60;51.50;;;;;;5066048;28;19967;-89
2023/03/27 07:44:46;;;;;;;;;;;22.30;51.70;;;;;;5065266;28;19974;-88
2023/03/27 07:47:12;;;;;;;;;;;22.70;51.50;;;;;;5048488;28;19970;-89
2023/03/27 07:49:38;;;;;;;;;;;23.00;51.00;;;;;;5049530;28;20089;-89
2023/03/27 07:52:03;;;;;;;;;;;23.00;50.30;;;;;;5049576;28;19908;-89
2023/03/27 07:54:30;;;;;;;;;;;23.10;50.40;;;;;;5049462;28;20255;-89
2023/03/27 07:56:56;;;;;;;;;;;23.40;50.10;;;;;;5048713;28;19916;-90
2023/03/27 07:59:22;;;;;;;;;;;23.40;49.80;;;;;;5067153;28;20214;-90
2023/03/27 08:01:49;;;;;;;;;;;22.80;49.70;;;;;;5049886;28;20171;-91
2023/03/27 08:04:16;;;;;;;;;;;22.40;50.40;;;;;;5050669;28;19970;-90
2023/03/27 08:06:42;;;;;;;;;;;22.10;51.00;;;;;;5068490;28;20388;-90
2023/03/27 08:09:09;;;;;;;;;;;21.10;51.30;;;;;;5050074;28;20003;-90
2023/03/27 08:11:36;;;;;;;;;;;20.20;52.60;;;;;;5050316;28;19909;-90
2023/03/27 08:14:02;;;;;;;;;;;19.80;53.60;;;;;;5050800;28;19915;-90
2023/03/27 08:16:28;;;;;;;;;;;19.20;54.90;;;;;;5050414;28;19908;-90
2023/03/27 08:18:54;;;;;;;;;;;18.70;55.40;;;;;;5067617;28;19944;-90
2023/03/27 08:21:20;;;;;;;;;;;19.60;55.90;;;;;;5049748;28;20201;-90
2023/03/27 08:23:46;;;;;;;;;;;20.40;54.20;;;;;;5049999;28;20061;-90
2023/03/27 08:26:12;;;;;;;;;;;20.10;53.80;;;;;;5049496;28;20251;-90
2023/03/27 08:28:38;;;;;;;;;;;20.30;54.20;;;;;;5047582;28;19908;-89
2023/03/27 08:31:11;;;;;;;;;;;19.80;54.30;;;;;;5047500;28;19919;-90
2023/03/27 08:33:37;;;;;;;;;;;19.30;55.10;;;;;;5047304;28;19924;-90
2023/03/27 08:36:05;;;;;;;;;;;18.90;56.10;;;;;;5050109;28;19909;-90
2023/03/27 08:38:32;;;;;;;;;;;18.30;56.90;;;;;;5049257;28;19916;-90
2023/03/27 08:40:59;;;;;;;;;;;18.00;58.00;;;;;;5048915;28;20202;-90
2023/03/27 08:43:32;;;;;;;;;;;19.00;57.30;;;;;;5049450;28;19926;-90
2023/03/27 08:46:04;;;;;;;;;;;18.70;57.10;;;;;;5049269;28;19908;-90
2023/03/27 08:48:36;;;;;;;;;;;19.50;57.40;;;;;;5048235;28;19931;-90
2023/03/27 08:51:05;;;;;;;;;;;19.80;55.60;;;;;;5079380;28;19944;-90
2023/03/27 08:53:33;;;;;;;;;;;19.90;55.30;;;;;;5045388;28;20283;-90
2023/03/27 08:56:00;;;;;;;;;;;19.00;56.20;;;;;;5081973;28;20086;-89
2023/03/27 08:58:26;;;;;;;;;;;18.30;57.60;;;;;;5046925;28;19909;-90
2023/03/27 09:01:14;;;;;;;;;;;19.10;58.60;;;;;;5047303;28;20033;-90
2023/03/27 09:03:52;;;;;;;;;;;19.30;57.10;;;;;;5058086;28;19962;-90
2023/03/27 09:06:23;;;;;;;;;;;19.60;55.90;;;;;;5047645;28;19919;-91
2023/03/27 09:09:05;;;;;;;;;;;19.20;56.60;;;;;;5049005;28;20345;-90
2023/03/27 09:11:39;;;;;;;;;;;19.00;56.70;;;;;;5081329;28;20247;-89
2023/03/27 09:14:11;;;;;;;;;;;19.20;58.00;;;;;;5048337;28;19917;-90
2023/03/27 09:16:47;;;;;;;;;;;19.80;56.00;;;;;;5048542;28;20190;-90
2023/03/27 09:19:16;;;;;;;;;;;19.10;56.70;;;;;;5047987;28;19920;-89
2023/03/27 09:21:47;;;;;;;;;;;18.50;57.80;;;;;;5082071;28;20186;-90
2023/03/27 09:24:33;;;;;;;;;;;18.80;58.60;;;;;;5066970;28;20046;-90
2023/03/27 09:27:05;;;;;;;;;;;18.30;58.60;;;;;;5065812;28;19993;-90
2023/03/27 09:29:34;;;;;;;;;;;17.90;59.60;;;;;;5047302;28;20405;-90
2023/03/27 09:31:59;;;;;;;;;;;18.10;59.50;;;;;;5047233;28;20509;-90
2023/03/27 09:34:31;;;;;;;;;;;18.80;59.40;;;;;;5048350;28;19924;-90
2023/03/27 09:36:58;;;;;;;;;;;19.90;56.80;;;;;;5050774;28;20190;-90
2023/03/27 09:39:33;;;;;;;;;;;19.90;57.00;;;;;;5050053;28;19915;-89
2023/03/27 09:42:05;;;;;;;;;;;21.60;55.00;;;;;;5051433;28;19912;-90
2023/03/27 09:44:34;;;;;;;;;;;23.00;52.70;;;;;;5052948;28;19908;-90
2023/03/27 09:47:03;;;;;;;;;;;23.90;51.10;;;;;;5052228;28;20009;-90
2023/03/27 09:49:29;;;;;;;;;;;24.60;49.90;;;;;;5051470;28;19985;-90
2023/03/27 09:51:55;;;;;;;;;;;25.10;49.00;;;;;;5050721;28;20012;-90
2023/03/27 09:54:22;;;;;;;;;;;24.50;48.10;;;;;;5051013;28;19909;-90
2023/03/27 09:56:53;;;;;;;;;;;23.60;49.40;;;;;;5052813;28;19908;-91
2023/03/27 09:59:22;;;;;;;;;;;22.50;49.60;;;;;;5051938;28;19908;-90
2023/03/27 10:01:50;;;;;;;;;;;21.00;51.10;;;;;;5086172;28;19912;-91
2023/03/27 10:04:17;;;;;;;;;;;20.30;52.60;;;;;;5052204;28;19990;-90
2023/03/27 10:06:44;;;;;;;;;;;19.70;53.30;;;;;;5051038;28;19928;-90
2023/03/27 10:09:27;;;;;;;;;;;19.00;54.50;;;;;;5068022;28;20290;-90
2023/03/27 10:12:00;;;;;;;;;;;18.80;55.50;;;;;;5051978;28;20250;-90
2023/03/27 10:14:28;;;;;;;;;;;18.90;55.40;;;;;;5051798;28;20357;-90
2023/03/27 10:16:53;;;;;;;;;;;18.80;55.80;;;;;;5053255;28;20190;-90
2023/03/27 10:19:21;;;;;;;;;;;18.50;56.50;;;;;;5050969;28;19909;-91
2023/03/27 10:21:47;;;;;;;;;;;18.20;57.40;;;;;;5066666;28;19919;-91
2023/03/27 10:24:16;;;;;;;;;;;17.90;58.10;;;;;;5048696;28;19908;-90
2023/03/27 10:26:41;;;;;;;;;;;17.80;58.80;;;;;;5081950;28;20038;-90
2023/03/27 10:29:21;;;;;;;;;;;17.70;59.30;;;;;;5046500;28;19909;-89
2023/03/27 10:31:51;;;;;;;;;;;17.70;59.60;;;;;;5046886;28;19908;-89
2023/03/27 10:34:26;;;;;;;;;;;17.70;59.90;;;;;;5045048;28;20057;-90
2023/03/27 10:36:53;;;;;;;;;;;17.60;60.40;;;;;;5079494;28;19944;-91
2023/03/27 10:39:19;;;;;;;;;;;17.50;61.10;;;;;;5046976;28;19909;-90
2023/03/27 10:41:46;;;;;;;;;;;17.30;62.00;;;;;;5045333;28;19916;-90
2023/03/27 10:44:16;;;;;;;;;;;17.20;62.90;;;;;;5046177;28;19908;-90
2023/03/27 10:46:43;;;;;;;;;;;17.00;64.00;;;;;;5064850;28;19913;-90
2023/03/27 10:49:27;;;;;;;;;;;17.00;64.90;;;;;;5048065;28;20089;-90
2023/03/27 10:52:13;;;;;;;;;;;17.00;65.60;;;;;;5080054;28;19915;-90
2023/03/27 10:54:57;;;;;;;;;;;16.90;66.20;;;;;;5064251;28;19909;-90
2023/03/27 10:57:31;;;;;;;;;;;16.90;66.80;;;;;;5083212;28;19909;-90
2023/03/27 11:00:18;;;;;;;;;;;16.80;67.30;;;;;;5049470;28;19955;-89
2023/03/27 11:02:59;;;;;;;;;;;16.80;67.60;;;;;;5048657;28;19947;-89
2023/03/27 11:05:27;;;;;;;;;;;16.80;67.30;;;;;;5084706;28;19959;-90
2023/03/27 11:07:59;;;;;;;;;;;16.80;67.40;;;;;;5050853;28;19926;-90
2023/03/27 11:10:32;;;;;;;;;;;16.80;67.50;;;;;;5085464;28;19920;-90
2023/03/27 11:13:00;;;;;;;;;;;16.80;67.60;;;;;;5046592;28;19923;-90
2023/03/27 11:15:29;;;;;;;;;;;16.80;67.60;;;;;;5057276;28;19909;-89
2023/03/27 11:18:04;;;;;;;;;;;16.80;67.90;;;;;;5049494;28;19995;-89
2023/03/27 11:20:36;;;;;;;;;;;16.80;68.10;;;;;;5085884;28;20076;-90
2023/03/27 11:23:05;;;;;;;;;;;16.80;68.90;;;;;;5079996;28;19917;-89
2023/03/27 11:25:38;;;;;;;;;;;16.80;68.30;;;;;;5049855;28;19913;-90
2023/03/27 11:28:16;;;;;;;;;;;16.80;68.40;;;;;;5074023;28;20140;-90
2023/03/27 11:31:12;;;;;;;;;;;16.80;68.60;;;;;;5075780;28;20191;-90
2023/03/27 11:33:40;;;;;;;;;;;16.70;68.70;;;;;;5040862;28;20015;-91
2023/03/27 11:36:21;;;;;;;;;;;16.70;69.00;;;;;;5080119;28;19943;-91
2023/03/27 11:38:56;;;;;;;;;;;16.70;69.50;;;;;;5062983;28;19912;-91
2023/03/27 11:41:21;;;;;;;;;;;16.50;70.00;;;;;;5085343;28;19912;-92
2023/03/27 11:43:47;;;;;;;;;;;16.40;70.90;;;;;;5098968;28;20018;-90
2023/03/27 11:46:25;;;;;;;;;;;16.40;71.40;;;;;;5076967;28;19919;-90
2023/03/27 11:48:56;;;;;;;;;;;16.40;71.60;;;;;;5074122;28;19932;-91
2023/03/27 11:51:25;;;;;;;;;;;16.50;72.00;;;;;;5076037;28;19973;-88
2023/03/27 11:54:20;;;;;;;;;;;16.50;71.90;;;;;;5073296;28;19916;-92
2023/03/27 11:56:56;;;;;;;;;;;16.60;71.90;;;;;;5075279;28;19969;-90
2023/03/27 11:59:31;;;;;;;;;;;16.70;72.00;;;;;;5067546;28;20068;-91
2023/03/27 12:02:15;;;;;;;;;;;16.70;71.90;;;;;;5102627;28;20008;-90
2023/03/27 12:04:51;;;;;;;;;;;16.70;72.00;;;;;;5101769;28;20124;-91
2023/03/27 12:07:30;;;;;;;;;;;16.70;72.10;;;;;;5100211;28;19943;-91
2023/03/27 12:10:20;;;;;;;;;;;16.70;72.40;;;;;;5101535;28;20131;-92
2023/03/27 12:13:15;;;;;;;;;;;16.70;72.50;;;;;;5105337;28;19908;-90
2023/03/27 12:15:44;;;;;;;;;;;16.60;73.00;;;;;;5073545;28;19962;-91
2023/03/27 12:18:13;;;;;;;;;;;16.50;73.60;;;;;;5085121;28;19908;-91
2023/03/27 12:20:48;;;;;;;;;;;16.40;74.10;;;;;;5101017;28;20047;-90
2023/03/27 12:23:23;;;;;;;;;;;16.40;74.80;;;;;;5101257;28;19912;-90
2023/03/27 12:25:57;;;;;;;;;;;16.30;75.60;;;;;;5099260;28;19919;-91
2023/03/27 12:28:23;;;;;;;;;;;16.20;76.40;;;;;;5098616;28;19912;-90
2023/03/27 12:30:59;;;;;;;;;;;16.10;77.00;;;;;;5097795;28;19920;-90
2023/03/27 12:33:28;;;;;;;;;;;16.10;77.60;;;;;;5098772;28;20010;-90
2023/03/27 12:35:56;;;;;;;;;;;16.10;77.90;;;;;;5099823;28;19907;-90
2023/03/27 12:38:30;;;;;;;;;;;16.10;77.90;;;;;;5099295;28;19918;-91
2023/03/27 12:41:09;;;;;;;;;;;16.10;78.00;;;;;;5099280;28;20312;-90
2023/03/27 12:43:40;;;;;;;;;;;16.10;78.20;;;;;;5087866;28;19912;-90
2023/03/27 12:46:18;;;;;;;;;;;16.10;78.50;;;;;;5102354;28;20279;-90
2023/03/27 12:48:53;;;;;;;;;;;16.10;78.60;;;;;;5100934;28;20010;-89
2023/03/27 12:51:19;;;;;;;;;;;16.10;78.80;;;;;;5102317;28;19919;-90
2023/03/27 12:53:49;;;;;;;;;;;16.10;78.90;;;;;;5100039;28;19908;-90
2023/03/27 12:56:15;;;;;;;;;;;16.20;78.90;;;;;;5102530;28;20140;-89
2023/03/27 12:58:42;;;;;;;;;;;16.20;78.50;;;;;;5103413;28;20036;-90
2023/03/27 13:01:09;;;;;;;;;;;16.20;78.40;;;;;;5102337;28;19939;-91
2023/03/27 13:03:54;;;;;;;;;;;16.20;78.50;;;;;;5101422;28;20144;-90
2023/03/27 13:06:36;;;;;;;;;;;16.20;78.30;;;;;;5102889;28;19912;-90
2023/03/27 13:09:12;;;;;;;;;;;16.20;78.50;;;;;;5069868;28;20241;-90
2023/03/27 13:11:48;;;;;;;;;;;16.10;79.00;;;;;;5102794;28;19908;-90
2023/03/27 13:14:31;;;;;;;;;;;16.00;79.70;;;;;;5103286;28;20246;-89
2023/03/27 13:17:03;;;;;;;;;;;15.90;80.00;;;;;;5102047;28;20247;-90
2023/03/27 13:19:38;;;;;;;;;;;15.90;81.10;;;;;;5102949;28;19908;-91
2023/03/27 13:22:22;;;;;;;;;;;15.80;81.50;;;;;;5086236;28;20371;-91
2023/03/27 13:25:03;;;;;;;;;;;15.80;81.80;;;;;;5102085;28;19919;-91
2023/03/27 13:27:29;;;;;;;;;;;15.80;82.20;;;;;;5103544;28;19908;-91
2023/03/27 13:29:55;;;;;;;;;;;15.70;82.50;;;;;;5101893;28;19919;-90
2023/03/27 13:32:29;;;;;;;;;;;15.70;82.80;;;;;;5102157;28;19976;-91
2023/03/27 13:35:04;;;;;;;;;;;15.70;83.10;;;;;;5084280;28;19916;-91
2023/03/27 13:37:29;;;;;;;;;;;15.70;83.30;;;;;;5101105;28;19912;-91
2023/03/27 13:39:55;;;;;;;;;;;15.70;83.50;;;;;;5100629;28;19920;-90
2023/03/27 13:42:27;;;;;;;;;;;15.60;83.70;;;;;;5103027;28;20037;-91
2023/03/27 13:44:55;;;;;;;;;;;15.60;84.00;;;;;;5101399;28;20296;-90
2023/03/27 13:47:23;;;;;;;;;;;15.50;84.30;;;;;;5102516;28;20158;-90
2023/03/27 13:50:08;;;;;;;;;;;15.50;84.80;;;;;;5100261;28;20266;-89
2023/03/27 13:52:52;;;;;;;;;;;15.40;85.10;;;;;;5101353;28;20407;-91
2023/03/27 13:55:38;;;;;;;;;;;15.40;85.40;;;;;;5096941;28;20016;-90
2023/03/27 13:58:07;;;;;;;;;;;15.40;85.60;;;;;;5097790;28;19908;-91
2023/03/27 14:00:40;;;;;;;;;;;15.50;85.80;;;;;;5083067;28;20260;-91
2023/03/27 14:03:09;;;;;;;;;;;15.50;85.80;;;;;;5099043;28;19912;-90
2023/03/27 14:05:41;;;;;;;;;;;15.50;85.80;;;;;;5098477;28;19908;-90
2023/03/27 14:08:11;;;;;;;;;;;15.50;85.60;;;;;;5100561;28;19919;-90
2023/03/27 14:10:56;;;;;;;;;;;15.50;85.70;;;;;;5100542;28;19974;-90
2023/03/27 14:13:27;;;;;;;;;;;15.50;86.00;;;;;;5100714;28;19936;-90
2023/03/27 14:16:02;;;;;;;;;;;15.50;86.40;;;;;;5099975;28;19951;-90
2023/03/27 14:18:31;;;;;;;;;;;15.50;86.70;;;;;;5097194;28;19943;-88
2023/03/27 14:21:01;;;;;;;;;;;15.40;86.90;;;;;;5096473;28;20515;-90
2023/03/27 14:23:29;;;;;;;;;;;15.40;87.20;;;;;;5098904;28;20085;-90
2023/03/27 14:26:00;;;;;;;;;;;15.30;87.50;;;;;;5098443;28;20129;-90
2023/03/27 14:28:44;;;;;;;;;;;15.30;87.90;;;;;;5103357;28;19922;-90
2023/03/27 14:31:13;;;;;;;;;;;15.30;88.20;;;;;;5087613;28;20094;-90